Time;durP1;ratioP1;P1;durP2;ratioP2;P2;SDS_P1;SDS_P2;PMS_P1;PMS_P2;Temp;Humidity;BMP_temperature;BMP_pressure;BME280_temperature;BME280_humidity;BME280_pressure;Samples;Min_cycle;Max_cycle;Signal;HPM_P1;HPM_P2
2023/01/29 00:02:00;;;;;;;3.08;2.88;;;;;;;;;;4998623;28;20491;-88
2023/01/29 00:04:27;;;;;;;1.35;1.27;;;;;;;;;;4999837;28;20109;-92
2023/01/29 00:06:57;;;;;;;7.25;1.70;;;;;;;;;;5000259;28;20073;-91
2023/01/29 00:09:24;;;;;;;1.48;0.65;;;;;;;;;;5000128;28;20101;-90
2023/01/29 00:11:50;;;;;;;0.75;0.75;;;;;;;;;;4999506;28;20105;-90
2023/01/29 00:14:17;;;;;;;1.75;0.63;;;;;;;;;;4997248;28;20708;-89
2023/01/29 00:16:43;;;;;;;0.38;0.38;;;;;;;;;;4998238;28;20046;-90
2023/01/29 00:19:10;;;;;;;1.65;1.55;;;;;;;;;;4997400;28;20046;-90
2023/01/29 00:21:36;;;;;;;1.02;1.02;;;;;;;;;;4997346;28;20054;-90
2023/01/29 00:24:04;;;;;;;1.48;1.15;;;;;;;;;;4997838;28;20065;-90
2023/01/29 00:26:31;;;;;;;1.05;0.95;;;;;;;;;;4997764;28;20046;-91
2023/01/29 00:28:59;;;;;;;1.55;1.45;;;;;;;;;;4997488;28;20459;-89
2023/01/29 00:31:25;;;;;;;3.33;2.00;;;;;;;;;;4997141;28;20046;-90
2023/01/29 00:33:52;;;;;;;0.68;0.68;;;;;;;;;;4997420;28;20054;-90
2023/01/29 00:36:20;;;;;;;1.45;1.35;;;;;;;;;;4997447;28;20050;-89
2023/01/29 00:38:53;;;;;;;0.85;0.85;;;;;;;;;;4994079;28;20047;-90
2023/01/29 00:46:50;;;;;;;0.65;0.65;;;;;;;;;;4996836;28;20057;-90
2023/01/29 00:49:16;;;;;;;1.98;1.88;;;;;;;;;;4996658;28;20077;-89
2023/01/29 00:51:43;;;;;;;1.85;1.75;;;;;;;;;;4976908;28;20510;-88
2023/01/29 00:54:09;;;;;;;1.58;1.48;;;;;;;;;;4978713;28;20054;-89
2023/01/29 00:56:37;;;;;;;1.55;1.45;;;;;;;;;;4976990;28;20055;-89
2023/01/29 00:59:04;;;;;;;1.25;1.15;;;;;;;;;;4977012;28;20122;-89
2023/01/29 01:04:14;;;;;;;0.77;0.77;;;;;;;;;;4975684;28;20062;-88
2023/01/29 01:06:42;;;;;;;4.18;1.42;;;;;;;;;;4977156;28;20110;-88
2023/01/29 01:11:54;;;;;;;3.05;2.95;;;;;;;;;;4987146;28;20057;-88
2023/01/29 01:14:20;;;;;;;3.28;2.25;;;;;;;;;;4996102;28;20066;-90
2023/01/29 01:16:47;;;;;;;1.55;1.48;;;;;;;;;;4996369;28;20100;-90
2023/01/29 01:19:14;;;;;;;2.22;2.13;;;;;;;;;;4996086;28;20050;-90
2023/01/29 01:21:44;;;;;;;1.67;1.58;;;;;;;;;;4996225;28;20046;-90
2023/01/29 01:24:10;;;;;;;3.00;2.15;;;;;;;;;;4995836;28;20061;-90
2023/01/29 01:26:37;;;;;;;1.33;1.23;;;;;;;;;;4993078;28;20054;-90
2023/01/29 01:29:05;;;;;;;1.73;1.63;;;;;;;;;;4993570;28;20457;-89
2023/01/29 01:31:31;;;;;;;3.20;3.00;;;;;;;;;;4995751;28;20046;-88
2023/01/29 01:33:58;;;;;;;5.68;3.10;;;;;;;;;;4995886;28;20050;-89
2023/01/29 01:36:24;;;;;;;0.30;0.30;;;;;;;;;;4996003;28;20054;-90
2023/01/29 01:38:51;;;;;;;1.27;1.17;;;;;;;;;;4995944;28;20054;-90
2023/01/29 01:41:18;;;;;;;2.15;1.95;;;;;;;;;;4995674;28;20468;-89
2023/01/29 01:43:52;;;;;;;0.85;0.82;;;;;;;;;;4990502;28;20492;-89
2023/01/29 01:46:20;;;;;;;0.63;0.63;;;;;;;;;;4995382;28;20112;-89
2023/01/29 01:48:49;;;;;;;0.47;0.47;;;;;;;;;;4994248;28;20050;-89
2023/01/29 01:51:16;;;;;;;0.63;0.60;;;;;;;;;;4994883;28;20062;-89
2023/01/29 01:53:44;;;;;;;1.17;1.08;;;;;;;;;;4975939;28;20137;-89
2023/01/29 01:56:14;;;;;;;1.73;1.63;;;;;;;;;;4975857;28;20055;-89
2023/01/29 01:58:43;;;;;;;1.35;1.27;;;;;;;;;;4976149;28;20102;-89
2023/01/29 02:01:10;;;;;;;0.80;0.80;;;;;;;;;;4975794;28;20468;-90
2023/01/29 02:11:55;;;;;;;1.08;1.08;;;;;;;;;;4995278;28;20050;-90
2023/01/29 02:14:22;;;;;;;4.90;1.10;;;;;;;;;;4994779;28;20066;-90
2023/01/29 02:16:48;;;;;;;0.65;0.65;;;;;;;;;;4995349;28;20057;-90
2023/01/29 02:19:22;;;;;;;0.70;0.60;;;;;;;;;;4994826;28;20488;-90
2023/01/29 02:22:12;;;;;;;2.42;2.28;;;;;;;;;;4995212;28;20046;-90
2023/01/29 02:24:39;;;;;;;;;;;;;;;;;;4978366;28;20520;-90
2023/01/29 02:27:07;;;;;;;1.77;1.67;;;;;;;;;;4995549;28;19981;-90
2023/01/29 02:29:40;;;;;;;1.17;1.08;;;;;;;;;;4994605;28;20108;-89
2023/01/29 02:32:14;;;;;;;2.00;1.90;;;;;;;;;;4994839;28;20113;-89
2023/01/29 02:37:34;;;;;;;1.33;1.23;;;;;;;;;;4995116;28;20134;-88
2023/01/29 02:40:05;;;;;;;0.73;0.65;;;;;;;;;;4994262;28;20050;-88
2023/01/29 02:42:34;;;;;;;1.25;1.15;;;;;;;;;;4988236;28;20058;-88
2023/01/29 02:45:05;;;;;;;0.57;0.57;;;;;;;;;;4975126;28;20051;-88
2023/01/29 02:47:34;;;;;;;6.70;1.70;;;;;;;;;;4975101;28;20105;-88
2023/01/29 02:50:04;;;;;;;1.45;1.35;;;;;;;;;;4975578;28;20051;-88
2023/01/29 02:52:34;;;;;;;0.82;0.82;;;;;;;;;;4974893;28;20093;-90
2023/01/29 02:55:05;;;;;;;3.83;1.55;;;;;;;;;;4974883;28;20101;-90
2023/01/29 02:57:33;;;;;;;0.70;0.70;;;;;;;;;;4974828;28;20462;-89
2023/01/29 03:00:03;;;;;;;2.17;1.65;;;;;;;;;;4975344;28;20441;-90
2023/01/29 03:02:33;;;;;;;0.70;0.70;;;;;;;;;;4994169;28;20057;-90
2023/01/29 03:05:00;;;;;;;0.65;0.65;;;;;;;;;;4994720;28;20113;-90
2023/01/29 03:07:43;;;;;;;0.68;0.68;;;;;;;;;;4994609;28;20734;-89
2023/01/29 03:10:14;;;;;;;2.78;1.45;;;;;;;;;;4994598;28;20046;-90
2023/01/29 03:12:41;;;;;;;0.43;0.43;;;;;;;;;;4974791;28;20047;-90
2023/01/29 03:15:11;;;;;;;1.40;1.30;;;;;;;;;;4974776;28;20114;-90
2023/01/29 03:17:40;;;;;;;2.42;2.28;;;;;;;;;;4982771;28;20054;-89
2023/01/29 03:20:08;;;;;;;2.05;1.13;;;;;;;;;;4994143;28;20496;-88
2023/01/29 03:22:36;;;;;;;0.93;0.88;;;;;;;;;;4994464;28;20475;-89
2023/01/29 03:33:26;;;;;;;1.35;1.25;;;;;;;;;;4998146;28;20722;-89
2023/01/29 03:35:57;;;;;;;5.00;1.48;;;;;;;;;;4992757;28;20070;-90
2023/01/29 03:38:28;;;;;;;1.83;1.73;;;;;;;;;;4997426;28;20082;-89
2023/01/29 03:40:57;;;;;;;2.65;2.45;;;;;;;;;;4997639;28;20057;-90
2023/01/29 03:43:29;;;;;;;1.17;1.17;;;;;;;;;;4997359;28;20515;-89
2023/01/29 03:46:00;;;;;;;1.25;1.15;;;;;;;;;;4997717;28;20104;-89
2023/01/29 03:48:29;;;;;;;0.75;0.75;;;;;;;;;;4997572;28;20101;-89
2023/01/29 03:50:59;;;;;;;2.17;1.70;;;;;;;;;;4997632;28;20093;-89
2023/01/29 03:53:29;;;;;;;2.95;2.75;;;;;;;;;;4992318;28;20550;-89
2023/01/29 03:56:00;;;;;;;2.78;2.58;;;;;;;;;;4997474;28;20492;-90
2023/01/29 03:58:31;;;;;;;0.70;0.70;;;;;;;;;;4978429;28;20051;-90
2023/01/29 04:01:02;;;;;;;1.58;1.48;;;;;;;;;;4978293;28;20055;-90
2023/01/29 04:03:32;;;;;;;1.88;1.77;;;;;;;;;;4977496;28;20625;-90
2023/01/29 04:06:04;;;;;;;1.35;1.30;;;;;;;;;;4977847;28;20082;-89
2023/01/29 04:08:33;;;;;;;1.83;1.73;;;;;;;;;;4987942;28;20050;-91
2023/01/29 04:11:02;;;;;;;0.57;0.57;;;;;;;;;;4997673;28;20046;-90
2023/01/29 04:13:32;;;;;;;1.10;1.08;;;;;;;;;;4997506;28;20046;-91
2023/01/29 04:16:01;;;;;;;1.05;1.02;;;;;;;;;;4997124;28;20062;-90
2023/01/29 04:18:27;;;;;;;0.95;0.63;;;;;;;;;;4997681;28;20109;-90
2023/01/29 04:20:54;;;;;;;1.38;1.27;;;;;;;;;;4997553;28;20051;-90
2023/01/29 04:23:22;;;;;;;1.67;1.58;;;;;;;;;;4997693;28;20053;-91
2023/01/29 04:25:53;;;;;;;2.85;2.75;;;;;;;;;;4990945;28;20495;-90
2023/01/29 04:28:22;;;;;;;2.17;2.08;;;;;;;;;;4977680;28;20051;-89
2023/01/29 04:30:51;;;;;;;0.90;0.90;;;;;;;;;;4977363;28;20098;-89
2023/01/29 04:33:23;;;;;;;1.15;1.05;;;;;;;;;;4977072;28;20479;-88
2023/01/29 04:35:58;;;;;;;1.08;1.08;;;;;;;;;;4977160;28;20054;-89
2023/01/29 04:38:32;;;;;;;3.20;3.10;;;;;;;;;;4977473;28;20059;-89
2023/01/29 04:41:03;;;;;;;1.00;1.00;;;;;;;;;;4977398;28;20460;-90
2023/01/29 04:43:35;;;;;;;1.48;1.38;;;;;;;;;;4977998;28;20051;-90
2023/01/29 04:46:08;;;;;;;1.45;1.35;;;;;;;;;;4993858;28;20058;-89
2023/01/29 04:48:41;;;;;;;1.40;1.30;;;;;;;;;;4996182;28;20591;-89
2023/01/29 04:51:11;;;;;;;1.63;1.52;;;;;;;;;;4996528;28;20050;-89
2023/01/29 04:53:43;;;;;;;3.08;2.95;;;;;;;;;;4996452;28;20106;-90
2023/01/29 04:56:14;;;;;;;0.95;0.95;;;;;;;;;;4997134;28;20124;-89
2023/01/29 04:58:43;;;;;;;8.07;2.90;;;;;;;;;;4996578;28;20061;-90
2023/01/29 05:01:12;;;;;;;1.45;1.35;;;;;;;;;;4992926;28;20098;-89
2023/01/29 05:03:42;;;;;;;1.10;1.10;;;;;;;;;;4977321;28;20464;-90
2023/01/29 05:06:10;;;;;;;1.73;1.65;;;;;;;;;;4977124;28;20050;-90
2023/01/29 05:08:37;;;;;;;0.50;0.50;;;;;;;;;;4976803;28;20101;-91
2023/01/29 05:11:04;;;;;;;1.35;1.13;;;;;;;;;;4976535;28;20125;-89
2023/01/29 05:13:32;;;;;;;1.73;1.63;;;;;;;;;;4976241;28;20047;-88
2023/01/29 05:16:02;;;;;;;1.25;1.15;;;;;;;;;;4992584;28;20113;-88
2023/01/29 05:18:29;;;;;;;1.00;0.90;;;;;;;;;;4995329;28;20050;-88
2023/01/29 05:20:57;;;;;;;1.08;1.08;;;;;;;;;;4995674;28;20451;-89
2023/01/29 05:23:24;;;;;;;3.38;2.35;;;;;;;;;;4995406;28;20054;-88
2023/01/29 05:25:51;;;;;;;1.52;1.13;;;;;;;;;;4995649;28;20042;-88
2023/01/29 05:28:17;;;;;;;0.93;0.82;;;;;;;;;;4993719;28;20142;-87
2023/01/29 05:30:44;;;;;;;1.45;1.38;;;;;;;;;;4995183;28;20081;-88
2023/01/29 05:33:12;;;;;;;2.10;1.58;;;;;;;;;;4995665;28;20054;-88
2023/01/29 05:35:38;;;;;;;1.33;1.27;;;;;;;;;;4994823;28;20050;-88
2023/01/29 05:38:06;;;;;;;1.92;1.67;;;;;;;;;;4994470;28;20058;-88
2023/01/29 05:40:33;;;;;;;0.98;0.98;;;;;;;;;;4995175;28;20054;-88
2023/01/29 05:43:00;;;;;;;2.45;2.30;;;;;;;;;;4995302;28;20054;-88
2023/01/29 05:45:26;;;;;;;1.95;1.25;;;;;;;;;;4994464;28;20112;-88
2023/01/29 05:47:55;;;;;;;2.15;1.75;;;;;;;;;;4995114;28;20061;-88
2023/01/29 05:50:21;;;;;;;1.10;1.05;;;;;;;;;;4991522;28;20054;-88
2023/01/29 05:52:48;;;;;;;1.27;1.17;;;;;;;;;;4994381;28;20508;-88
2023/01/29 05:55:16;;;;;;;1.42;1.33;;;;;;;;;;4994871;28;20118;-88
2023/01/29 05:57:42;;;;;;;1.42;1.27;;;;;;;;;;4994922;28;20128;-88
2023/01/29 06:00:09;;;;;;;1.60;1.50;;;;;;;;;;4994385;28;20108;-88
2023/01/29 06:02:36;;;;;;;1.35;1.30;;;;;;;;;;4994874;28;20046;-88
2023/01/29 06:05:02;;;;;;;1.15;1.13;;;;;;;;;;4994196;28;20488;-87
2023/01/29 06:07:29;;;;;;;2.17;2.08;;;;;;;;;;4993840;28;20058;-89
2023/01/29 06:09:55;;;;;;;1.95;1.80;;;;;;;;;;4993845;28;20054;-88
2023/01/29 06:12:23;;;;;;;0.77;0.77;;;;;;;;;;4994329;28;20097;-88
2023/01/29 06:14:50;;;;;;;1.77;1.67;;;;;;;;;;4994259;28;20116;-88
2023/01/29 06:17:17;;;;;;;2.22;2.13;;;;;;;;;;4994813;28;20050;-88
2023/01/29 06:19:43;;;;;;;7.10;4.25;;;;;;;;;;4994905;28;20062;-88
2023/01/29 06:22:10;;;;;;;1.52;1.42;;;;;;;;;;4994514;28;20105;-87
2023/01/29 06:24:36;;;;;;;1.60;1.50;;;;;;;;;;4994375;28;20105;-88
2023/01/29 06:27:03;;;;;;;1.45;1.38;;;;;;;;;;4991136;28;20055;-88
2023/01/29 06:29:31;;;;;;;0.85;0.85;;;;;;;;;;4994484;28;20057;-88
2023/01/29 06:31:57;;;;;;;2.28;2.17;;;;;;;;;;4994889;28;20117;-88
2023/01/29 06:34:24;;;;;;;2.63;2.42;;;;;;;;;;4993778;28;20108;-88
2023/01/29 06:36:50;;;;;;;2.38;2.17;;;;;;;;;;4994090;28;20046;-88
2023/01/29 06:39:17;;;;;;;0.80;0.80;;;;;;;;;;4994264;28;20050;-87
2023/01/29 06:41:44;;;;;;;1.73;1.63;;;;;;;;;;4991601;28;20397;-89
2023/01/29 06:44:10;;;;;;;4.05;3.80;;;;;;;;;;4974541;28;20050;-87
2023/01/29 06:46:38;;;;;;;1.42;1.38;;;;;;;;;;4974435;28;20046;-87
2023/01/29 06:49:05;;;;;;;2.03;1.92;;;;;;;;;;4974522;28;20542;-88
2023/01/29 06:51:31;;;;;;;3.10;2.67;;;;;;;;;;4974643;28;20055;-87
2023/01/29 06:53:58;;;;;;;1.42;1.33;;;;;;;;;;4974440;28;20187;-89
2023/01/29 06:56:24;;;;;;;3.95;3.65;;;;;;;;;;4974261;28;20555;-88
2023/01/29 06:58:51;;;;;;;0.82;0.73;;;;;;;;;;4977260;28;20042;-88
2023/01/29 07:01:17;;;;;;;1.13;1.00;;;;;;;;;;4973722;28;20058;-87
2023/01/29 07:03:48;;;;;;;3.38;3.15;;;;;;;;;;4995792;28;20459;-87
2023/01/29 07:06:15;;;;;;;3.38;3.13;;;;;;;;;;4997892;28;20054;-88
2023/01/29 07:08:42;;;;;;;1.95;0.63;;;;;;;;;;4997780;28;20495;-89
2023/01/29 07:11:08;;;;;;;5.70;5.30;;;;;;;;;;4997398;28;20412;-87
2023/01/29 07:13:35;;;;;;;1.20;1.10;;;;;;;;;;4997132;28;20105;-87
2023/01/29 07:16:02;;;;;;;2.42;2.05;;;;;;;;;;4995553;28;20066;-88
2023/01/29 07:18:29;;;;;;;1.77;1.67;;;;;;;;;;4977821;28;20117;-88
2023/01/29 07:20:57;;;;;;;1.75;1.65;;;;;;;;;;4978564;28;20046;-87
2023/01/29 07:23:23;;;;;;;2.88;2.28;;;;;;;;;;4978531;28;20485;-88
2023/01/29 07:25:50;;;;;;;1.98;1.88;;;;;;;;;;4978522;28;20106;-88
2023/01/29 07:28:17;;;;;;;3.00;1.80;;;;;;;;;;4978373;28;20082;-86
2023/01/29 07:30:43;;;;;;;5.55;5.28;;;;;;;;;;4978207;28;20393;-89
2023/01/29 07:33:10;;;;;;;1.88;1.48;;;;;;;;;;4981540;28;20096;-87
2023/01/29 07:35:38;;;;;;;1.40;1.30;;;;;;;;;;4997099;28;20177;-87
2023/01/29 07:38:06;;;;;;;3.28;3.08;;;;;;;;;;4997361;28;20497;-87
2023/01/29 07:40:32;;;;;;;2.70;2.50;;;;;;;;;;4997045;28;20455;-87
2023/01/29 07:42:59;;;;;;;1.50;1.38;;;;;;;;;;4997188;28;20058;-87
2023/01/29 07:45:26;;;;;;;1.20;1.13;;;;;;;;;;4997034;28;20046;-88
2023/01/29 07:47:53;;;;;;;2.42;2.33;;;;;;;;;;4997529;28;20093;-87
2023/01/29 07:50:19;;;;;;;1.55;1.45;;;;;;;;;;4998008;28;20133;-87
2023/01/29 07:52:46;;;;;;;1.05;0.95;;;;;;;;;;4995484;28;20470;-87
2023/01/29 07:55:14;;;;;;;1.88;1.77;;;;;;;;;;4996551;28;20101;-87
2023/01/29 07:57:40;;;;;;;2.15;2.05;;;;;;;;;;4997255;28;20054;-86
2023/01/29 08:00:07;;;;;;;2.35;1.23;;;;;;;;;;4997035;28;20299;-86
2023/01/29 08:02:34;;;;;;;0.70;0.70;;;;;;;;;;4997843;28;20054;-87
2023/01/29 08:05:00;;;;;;;0.85;0.85;;;;;;;;;;4997231;28;20101;-86
2023/01/29 08:07:27;;;;;;;1.65;1.55;;;;;;;;;;4996848;28;20050;-87
2023/01/29 08:09:53;;;;;;;1.45;1.35;;;;;;;;;;4994289;28;20054;-86
2023/01/29 08:12:24;;;;;;;2.22;1.77;;;;;;;;;;5046370;23;20452;-86
2023/01/29 08:14:51;;;;;;;1.73;1.63;;;;;;;;;;4977418;28;20054;-86
2023/01/29 08:17:17;;;;;;;1.50;1.40;;;;;;;;;;4978229;28;20116;-86
2023/01/29 08:19:44;;;;;;;2.30;2.10;;;;;;;;;;4977755;28;20089;-86
2023/01/29 08:22:10;;;;;;;0.95;0.95;;;;;;;;;;4977415;28;20149;-87
2023/01/29 08:24:37;;;;;;;0.80;0.80;;;;;;;;;;4977602;28;20105;-85
2023/01/29 08:27:04;;;;;;;1.30;1.30;;;;;;;;;;4974159;28;20046;-85
2023/01/29 08:29:32;;;;;;;3.70;3.50;;;;;;;;;;4976028;28;20315;-86
2023/01/29 08:31:59;;;;;;;1.13;1.05;;;;;;;;;;4978455;28;20109;-88
2023/01/29 08:34:26;;;;;;;0.93;0.77;;;;;;;;;;4977073;28;20101;-87
2023/01/29 08:36:53;;;;;;;1.48;1.38;;;;;;;;;;4975287;28;20055;-87
2023/01/29 08:39:19;;;;;;;1.42;1.33;;;;;;;;;;4976315;28;20725;-88
2023/01/29 08:41:46;;;;;;;1.42;1.33;;;;;;;;;;4958089;29;20055;-87
2023/01/29 08:44:12;;;;;;;1.90;1.75;;;;;;;;;;4967275;28;20051;-86
2023/01/29 08:46:40;;;;;;;1.25;1.15;;;;;;;;;;4982327;28;20062;-87
2023/01/29 08:49:07;;;;;;;2.22;2.03;;;;;;;;;;4979308;28;20081;-87
2023/01/29 08:51:33;;;;;;;1.40;1.30;;;;;;;;;;4977281;28;20142;-87
2023/01/29 08:54:00;;;;;;;1.60;1.50;;;;;;;;;;4975431;28;20047;-87
2023/01/29 08:56:27;;;;;;;1.75;1.65;;;;;;;;;;4958048;28;20055;-86
2023/01/29 08:58:53;;;;;;;2.38;1.83;;;;;;;;;;4960040;29;20057;-87
2023/01/29 09:01:20;;;;;;;0.82;0.82;;;;;;;;;;4961011;28;20047;-86
2023/01/29 09:03:49;;;;;;;2.03;1.30;;;;;;;;;;4967297;28;20105;-88
2023/01/29 09:06:15;;;;;;;3.67;3.38;;;;;;;;;;4976192;28;20043;-86
2023/01/29 09:08:42;;;;;;;2.17;2.08;;;;;;;;;;4976086;28;20051;-86
2023/01/29 09:11:09;;;;;;;0.90;0.90;;;;;;;;;;4974941;28;20047;-88
2023/01/29 09:13:35;;;;;;;1.30;1.20;;;;;;;;;;4975573;28;20572;-86
2023/01/29 09:16:03;;;;;;;2.75;2.65;;;;;;;;;;4975466;28;20046;-86
2023/01/29 09:18:30;;;;;;;2.00;1.90;;;;;;;;;;4976502;28;20104;-86
2023/01/29 09:20:58;;;;;;;1.20;0.68;;;;;;;;;;4976284;28;20055;-86
2023/01/29 09:23:24;;;;;;;1.95;1.80;;;;;;;;;;4975975;28;20051;-89
2023/01/29 09:25:51;;;;;;;0.88;0.88;;;;;;;;;;4974746;28;20124;-86
2023/01/29 09:28:17;;;;;;;1.63;1.27;;;;;;;;;;4975355;28;20555;-87
2023/01/29 09:30:44;;;;;;;1.70;1.60;;;;;;;;;;4974274;28;20043;-86
2023/01/29 09:33:11;;;;;;;1.88;1.77;;;;;;;;;;4974679;28;20105;-87
2023/01/29 09:35:39;;;;;;;1.40;1.30;;;;;;;;;;4975241;28;20043;-86
2023/01/29 09:38:07;;;;;;;0.82;0.80;;;;;;;;;;4975493;28;20051;-88
2023/01/29 09:40:37;;;;;;;1.63;1.52;;;;;;;;;;4974824;28;20083;-85
2023/01/29 09:43:08;;;;;;;1.58;1.45;;;;;;;;;;4965827;28;20047;-86
2023/01/29 09:45:40;;;;;;;2.70;0.98;;;;;;;;;;4974664;28;20054;-88
2023/01/29 09:48:11;;;;;;;1.35;1.25;;;;;;;;;;4974297;28;20443;-87
2023/01/29 09:50:39;;;;;;;2.42;2.22;;;;;;;;;;4974249;28;20055;-88
2023/01/29 09:53:13;;;;;;;0.98;0.98;;;;;;;;;;4976677;28;20127;-87
2023/01/29 09:55:41;;;;;;;1.58;1.48;;;;;;;;;;4975475;28;20117;-88
2023/01/29 09:58:13;;;;;;;2.50;1.77;;;;;;;;;;4975625;28;20117;-89
2023/01/29 10:00:45;;;;;;;0.68;0.68;;;;;;;;;;4975012;28;20101;-86
2023/01/29 10:03:18;;;;;;;1.55;1.45;;;;;;;;;;4956641;29;20047;-87
2023/01/29 10:05:50;;;;;;;0.50;0.40;;;;;;;;;;4958926;29;20426;-86
2023/01/29 10:08:29;;;;;;;1.40;1.30;;;;;;;;;;4958374;29;20059;-88
2023/01/29 10:10:59;;;;;;;0.47;0.47;;;;;;;;;;4961566;29;20126;-89
2023/01/29 10:13:29;;;;;;;1.35;1.27;;;;;;;;;;4962417;28;20051;-86
2023/01/29 10:16:12;;;;;;;3.35;3.15;;;;;;;;;;4977405;28;20058;-87
2023/01/29 10:18:45;;;;;;;2.50;2.35;;;;;;;;;;4974959;28;20101;-87
2023/01/29 10:21:19;;;;;;;2.70;2.50;;;;;;;;;;4975379;28;20077;-86
2023/01/29 10:23:50;;;;;;;0.60;0.60;;;;;;;;;;4976274;28;20097;-87
2023/01/29 10:26:17;;;;;;;2.13;2.03;;;;;;;;;;4973068;28;20051;-86
2023/01/29 10:28:46;;;;;;;1.40;1.30;;;;;;;;;;4956400;29;20481;-86
2023/01/29 10:31:15;;;;;;;2.25;1.92;;;;;;;;;;4954975;29;20051;-85
2023/01/29 10:33:42;;;;;;;1.55;1.35;;;;;;;;;;4954989;29;20051;-86
2023/01/29 10:36:13;;;;;;;0.80;0.80;;;;;;;;;;4966898;28;20129;-90
2023/01/29 10:38:42;;;;;;;1.17;1.08;;;;;;;;;;4973915;28;20050;-88
2023/01/29 10:41:22;;;;;;;1.38;1.27;;;;;;;;;;4974838;28;20055;-88
2023/01/29 10:43:53;;;;;;;1.85;1.00;;;;;;;;;;4975443;28;20051;-88
2023/01/29 10:46:19;;;;;;;;;;;;;;;;;;4975713;28;20105;-89
2023/01/29 10:48:49;;;;;;;1.77;1.67;;;;;;;;;;4975233;28;19972;-87
2023/01/29 10:51:22;;;;;;;2.40;1.48;;;;;;;;;;4975167;28;20109;-87
2023/01/29 10:53:55;;;;;;;2.75;1.30;;;;;;;;;;4974442;28;20101;-87
2023/01/29 10:56:29;;;;;;;1.38;1.10;;;;;;;;;;4975167;28;20055;-86
2023/01/29 10:58:59;;;;;;;1.67;1.58;;;;;;;;;;4974328;28;20055;-86
2023/01/29 11:01:25;;;;;;;0.77;0.77;;;;;;;;;;4974303;28;20051;-87
2023/01/29 11:03:56;;;;;;;1.23;1.17;;;;;;;;;;4975662;28;20493;-87
2023/01/29 11:06:24;;;;;;;1.90;1.80;;;;;;;;;;4975396;28;20109;-86
2023/01/29 11:08:54;;;;;;;1.13;1.13;;;;;;;;;;4985786;28;20058;-86
2023/01/29 11:11:21;;;;;;;1.52;1.42;;;;;;;;;;4974437;28;20059;-87
2023/01/29 11:13:52;;;;;;;3.05;2.95;;;;;;;;;;4975450;28;20784;-86
2023/01/29 11:16:19;;;;;;;0.60;0.60;;;;;;;;;;4975674;28;20555;-86
2023/01/29 11:18:50;;;;;;;1.80;1.38;;;;;;;;;;4975794;28;20094;-86
2023/01/29 11:21:17;;;;;;;2.05;1.85;;;;;;;;;;4975619;28;20055;-87
2023/01/29 11:23:43;;;;;;;0.93;0.90;;;;;;;;;;4974638;28;20047;-86
2023/01/29 11:26:11;;;;;;;0.95;0.95;;;;;;;;;;4975078;28;20525;-87
2023/01/29 11:28:39;;;;;;;1.42;1.33;;;;;;;;;;4974854;28;20055;-86
2023/01/29 11:51:51;;;;;;;6.25;4.35;;;;;;;;;;6105421;23;20086;-86
2023/01/29 11:54:19;;;;;;;5.07;1.58;;;;;;;;;;4998995;28;20082;-87
2023/01/29 11:56:46;;;;;;;0.98;0.98;;;;;;;;;;5006983;28;20118;-87
2023/01/29 11:59:26;;;;;;;1.30;1.20;;;;;;;;;;5007802;28;20042;-87
2023/01/29 12:01:52;;;;;;;1.52;1.42;;;;;;;;;;5007151;28;20491;-87
2023/01/29 12:04:20;;;;;;;1.15;1.10;;;;;;;;;;5007031;28;20054;-87
2023/01/29 12:06:54;;;;;;;2.72;1.17;;;;;;;;;;5007531;28;20081;-87
2023/01/29 12:09:22;;;;;;;0.90;0.90;;;;;;;;;;5005604;28;20058;-88
2023/01/29 12:11:48;;;;;;;1.00;0.95;;;;;;;;;;4997436;28;20050;-87
2023/01/29 12:14:26;;;;;;;0.95;0.95;;;;;;;;;;4997827;28;20046;-87
2023/01/29 12:16:55;;;;;;;1.35;1.23;;;;;;;;;;4997362;28;20669;-87
2023/01/29 12:19:25;;;;;;;1.15;1.08;;;;;;;;;;4996878;28;20047;-87
2023/01/29 12:21:56;;;;;;;5.45;3.20;;;;;;;;;;4997021;28;20053;-88
2023/01/29 12:24:23;;;;;;;;;;;;;;;;;;4997966;28;20061;-87
2023/01/29 12:26:51;;;;;;;1.23;1.23;;;;;;;;;;4997435;28;19929;-88
2023/01/29 12:29:25;;;;;;;1.70;1.27;;;;;;;;;;4996900;28;20059;-88
2023/01/29 12:31:56;;;;;;;0.65;0.65;;;;;;;;;;4996565;28;20054;-87
2023/01/29 12:34:27;;;;;;;0.63;0.63;;;;;;;;;;4996498;28;20100;-87
2023/01/29 12:36:59;;;;;;;9.27;3.40;;;;;;;;;;4996188;28;20042;-87
2023/01/29 12:39:25;;;;;;;1.15;0.85;;;;;;;;;;4996568;28;20104;-87
2023/01/29 12:41:55;;;;;;;1.15;1.10;;;;;;;;;;4996073;28;20050;-87
2023/01/29 12:44:25;;;;;;;0.60;0.60;;;;;;;;;;4996561;28;20496;-87
2023/01/29 12:46:54;;;;;;;1.58;1.48;;;;;;;;;;4996045;28;20451;-87
2023/01/29 12:49:23;;;;;;;3.33;0.68;;;;;;;;;;4995971;28;20058;-88
2023/01/29 12:51:54;;;;;;;1.77;1.55;;;;;;;;;;4995360;28;20137;-88
2023/01/29 12:54:25;;;;;;;1.35;1.25;;;;;;;;;;4995735;28;20054;-87
2023/01/29 12:56:52;;;;;;;;;;;;;;;;;;4996044;28;20078;-88
2023/01/29 12:59:20;;;;;;;3.22;2.47;;;;;;;;;;4995602;28;19925;-88
2023/01/29 13:01:50;;;;;;;1.15;1.00;;;;;;;;;;4995660;28;20101;-88
2023/01/29 13:04:19;;;;;;;1.48;1.38;;;;;;;;;;4996014;28;20050;-87
2023/01/29 13:06:49;;;;;;;1.27;1.05;;;;;;;;;;4995794;28;20054;-87
2023/01/29 13:09:18;;;;;;;4.95;3.33;;;;;;;;;;4995311;28;20100;-87
2023/01/29 13:11:51;;;;;;;1.00;0.90;;;;;;;;;;4995837;28;20133;-87
2023/01/29 13:14:20;;;;;;;0.70;0.52;;;;;;;;;;4995432;28;20130;-87
2023/01/29 13:16:49;;;;;;;1.25;1.15;;;;;;;;;;4996549;28;20134;-86
2023/01/29 13:19:20;;;;;;;1.98;1.48;;;;;;;;;;4995856;28;20058;-93
2023/01/29 13:21:48;;;;;;;2.75;2.55;;;;;;;;;;4996039;28;20582;-89
2023/01/29 13:24:16;;;;;;;1.13;1.02;;;;;;;;;;4994977;28;20051;-89
2023/01/29 13:26:44;;;;;;;1.10;1.10;;;;;;;;;;4994651;28;20050;-87
2023/01/29 13:29:20;;;;;;;2.00;1.80;;;;;;;;;;4995064;28;20046;-90
2023/01/29 13:31:47;;;;;;;1.67;1.58;;;;;;;;;;4976917;28;20050;-91
2023/01/29 13:34:15;;;;;;;2.85;1.45;;;;;;;;;;4978268;28;20050;-88
2023/01/29 13:36:43;;;;;;;2.05;1.88;;;;;;;;;;4978069;28;20054;-88
2023/01/29 13:39:17;;;;;;;2.47;2.10;;;;;;;;;;4977571;28;20121;-90
2023/01/29 13:41:44;;;;;;;4.90;1.75;;;;;;;;;;4996945;28;20057;-89
2023/01/29 13:44:20;;;;;;;0.73;0.73;;;;;;;;;;4980836;28;20488;-89
2023/01/29 13:46:51;;;;;;;2.90;2.63;;;;;;;;;;4996579;28;20133;-89
2023/01/29 13:49:29;;;;;;;2.08;1.98;;;;;;;;;;4997065;28;20054;-89
2023/01/29 13:51:56;;;;;;;0.43;0.43;;;;;;;;;;4995691;28;20054;-90
2023/01/29 13:54:24;;;;;;;2.28;2.08;;;;;;;;;;4995691;28;20097;-90
2023/01/29 13:56:58;;;;;;;3.00;1.65;;;;;;;;;;4995874;28;20042;-89
2023/01/29 13:59:46;;;;;;;2.05;1.90;;;;;;;;;;4996942;28;20096;-88
2023/01/29 14:02:20;;;;;;;2.22;2.08;;;;;;;;;;4997635;28;20121;-87
2023/01/29 14:04:47;;;;;;;0.85;0.85;;;;;;;;;;4998408;28;20185;-89
2023/01/29 14:07:32;;;;;;;1.17;1.10;;;;;;;;;;4996759;28;20053;-92
2023/01/29 14:10:02;;;;;;;1.38;1.27;;;;;;;;;;4996224;28;20401;-88
2023/01/29 14:12:43;;;;;;;2.30;1.35;;;;;;;;;;4996056;28;20042;-88
2023/01/29 14:15:21;;;;;;;1.80;1.70;;;;;;;;;;4976612;28;20411;-90
2023/01/29 14:17:59;;;;;;;1.20;0.93;;;;;;;;;;4977296;28;20042;-90
2023/01/29 14:20:30;;;;;;;1.00;1.00;;;;;;;;;;4981148;28;20125;-91
2023/01/29 14:22:59;;;;;;;1.63;1.52;;;;;;;;;;4978983;28;20058;-89
2023/01/29 14:28:37;;;;;;;1.75;1.33;;;;;;;;;;5027524;28;20050;-90
2023/01/29 14:31:06;;;;;;;1.88;1.77;;;;;;;;;;5003819;28;20058;-90
2023/01/29 14:33:34;;;;;;;2.78;2.30;;;;;;;;;;4997050;28;20054;-90
2023/01/29 14:36:06;;;;;;;2.20;2.03;;;;;;;;;;4997826;28;20043;-91
2023/01/29 14:38:33;;;;;;;2.70;1.80;;;;;;;;;;5000167;28;20047;-91
2023/01/29 14:41:05;;;;;;;1.65;1.45;;;;;;;;;;4995221;28;20050;-88
2023/01/29 14:43:32;;;;;;;4.15;3.50;;;;;;;;;;4996083;28;20054;-89
2023/01/29 14:46:28;;;;;;;1.70;1.60;;;;;;;;;;4996494;28;20069;-87
2023/01/29 14:48:55;;;;;;;1.83;1.73;;;;;;;;;;4995081;28;20046;-89
2023/01/29 14:51:24;;;;;;;2.13;2.03;;;;;;;;;;4995373;28;20389;-88
2023/01/29 14:53:54;;;;;;;0.82;0.82;;;;;;;;;;4994596;28;20058;-88
2023/01/29 14:56:24;;;;;;;1.63;1.17;;;;;;;;;;4994800;28;20057;-88
2023/01/29 14:58:52;;;;;;;5.70;2.35;;;;;;;;;;4994735;28;20604;-89
2023/01/29 15:01:22;;;;;;;1.90;1.73;;;;;;;;;;4994475;28;20050;-89
2023/01/29 15:03:49;;;;;;;1.98;1.88;;;;;;;;;;4994449;28;20058;-88
2023/01/29 15:06:18;;;;;;;3.55;3.28;;;;;;;;;;4983396;28;20047;-88
2023/01/29 15:08:47;;;;;;;4.03;3.72;;;;;;;;;;4974658;28;20061;-88
2023/01/29 15:11:36;;;;;;;1.58;1.10;;;;;;;;;;4981316;28;20567;-88
2023/01/29 15:14:10;;;;;;;1.85;1.75;;;;;;;;;;4994223;28;20062;-88
2023/01/29 15:16:43;;;;;;;1.60;1.48;;;;;;;;;;4993975;28;20499;-88
2023/01/29 15:19:13;;;;;;;0.80;0.80;;;;;;;;;;4995163;28;20054;-89
2023/01/29 15:22:00;;;;;;;1.83;1.73;;;;;;;;;;4994175;28;20458;-89
2023/01/29 15:24:26;;;;;;;1.90;1.80;;;;;;;;;;4996522;28;20450;-88
2023/01/29 15:26:53;;;;;;;0.38;0.38;;;;;;;;;;4998860;28;20125;-89
2023/01/29 15:29:22;;;;;;;0.80;0.80;;;;;;;;;;4998189;28;20491;-89
2023/01/29 15:31:50;;;;;;;1.92;1.83;;;;;;;;;;4998758;28;20082;-91
2023/01/29 15:34:17;;;;;;;2.25;1.50;;;;;;;;;;4996883;28;20042;-92
2023/01/29 15:36:44;;;;;;;2.05;1.95;;;;;;;;;;4997922;28;20504;-90
2023/01/29 15:39:15;;;;;;;3.10;1.75;;;;;;;;;;4999195;28;20112;-92
2023/01/29 15:41:41;;;;;;;;;;;;;;;;;;4998859;28;20659;-89
2023/01/29 15:44:11;;;;;;;0.88;0.88;;;;;;;;;;5001148;28;19925;-89
2023/01/29 15:46:40;;;;;;;2.60;2.40;;;;;;;;;;4998111;28;20050;-91
2023/01/29 15:49:09;;;;;;;2.53;2.33;;;;;;;;;;4998017;28;20105;-89
2023/01/29 15:51:36;;;;;;;2.50;2.30;;;;;;;;;;4997989;28;20491;-90